Williston, North Dakota
Current Conditions -  °F | °C
As of 7:52 PM on Saturday 22 Nov 2014 (Local Time) from KISN Reporting Station
Few Clouds Few Clouds  
Wind Chill: -3°   Ceiling: Unl
Heat Index:   Visibility: 10mi
Dew Point: -1°   Wind: 8mph
Humidity: 85%   Direction: 230°SW
Pressure: 29.3"   Gusts: NA
Location:  48.15°N, 103.62°W
Report Text: KISN 230152Z AUTO 23007KT 10SM FEW080 01/M01 A2930 RMK AO2 SLP942 T00111011
Loading
Personal Weather Stations






























Interactive Weather Map New forecast layout! Learn more

10-Day Weather Forecast

Advertisements
Track Severe Weather on mobile